Roseburg, OR

3:27 AM PDT on October 25, 2014 (GMT -0700)
Sexton Summit | Change Station
CLOSE
Current Station
Airport
Location: Sexton Summit,
Elevation: 3839 ft
Nearby Weather Stations
Active Advisory: Wind Advisory

Elev 3839 ft 42.60 °N, 123.36 °W | Updated 31 minutes ago

Overcast
Overcast
47 °F
Feels Like 47 °F
N
16
Wind Variable Wind from ESE
Gusts 29 mph

Today
High -- | Low -- °F
--% Chance of Precip.
Yesterday
High -- | Low -- °F
Precip. -- in
7:39 AM 6:14 PM
New Moon, 2% visible
Pressure 29.50 in
Visibility 10.0 miles
Clouds Few 7000 ft
Mostly Cloudy 9500 ft
Dew Point 43 °F
Humidity 86%
Rainfall 0.00 in
Snow Depth Not available.
UV 0 out of 12
Pollen .30 out of 12
Air Quality Not available.
Flu Activity Sporadic
METAR KSXT 250956Z AUTO 12014G25KT 080V150 10SM FEW070 BKN095 08/06 A2957 RMK AO2 PK WND 13026/0943 SLP990 T00830061

More Conditions Fewer Conditions

Pressure 29.50 in
Visibility 10.0 miles
Clouds Few 7000 ft
Mostly Cloudy 9500 ft
Dew Point 43 °F
Humidity 86%
Rainfall 0.00 in
Snow Depth Not available.
UV 0 out of 12
Pollen .30 out of 12
Air Quality Not available.
Flu Activity Sporadic
METAR KSXT 250956Z AUTO 12014G25KT 080V150 10SM FEW070 BKN095 08/06 A2957 RMK AO2 PK WND 13026/0943 SLP990 T00830061

More Conditions Fewer Conditions

10-Day Weather Forecast

Almanac

Astronomy

Oct. 25, 2014 Rise Set
Actual Time 7:39 AM PDT 6:14 PM PDT
Civil Twilight 7:10 AM PDT 6:43 PM PDT
Nautical Twilight 6:37 AM PDT 7:17 PM PDT
Astronomical Twilight 6:04 AM PDT 7:50 PM PDT
Moon 9:26 AM PDT 7:39 PM PDT
Length of Visible Light 11h 33m
Length of Day
10h 35m
Tomorrow will be 2m 43s shorter.
New Moon, 2% of the Moon is Illuminated
Today
New Moon
Oct 30
First Quarter
Nov 6
Full
Nov 14
Last Quarter
Nov 22
New

Today's Extremes

State Highs State Lows

Community

WunderPhotos

Upload Photos

1,764,806 photos uploaded!

Nearby

Snow Depth

Station Depth Elevation
Holland Meadows 0 in 4900 ft
Diamond Lake 1 in 5315 ft
Annie Springs 0 in 6020 ft
Salt Creek Falls 0 in 4000 ft
Cascade Summit 0 in 4880 ft

Earthquake Activity

City Distance Mag. Time & Date
No recent earthquake activity has been reported nearby.
Minimum magnitude displayed is 2.5.

Coastal Water Temperatures

Place Temperature
No Stations Reporting

Nearby Weather Stations